createdAt,value
2022-12-15T00:00:55.006Z,15.80
2022-12-15T00:01:54.981Z,15.20
2022-12-15T00:02:55.091Z,15.30
2022-12-15T00:03:54.948Z,16.20
2022-12-15T00:04:54.921Z,15.80
2022-12-15T00:05:54.880Z,15.90
2022-12-15T00:06:54.931Z,17.80
2022-12-15T00:07:54.887Z,18.80
2022-12-15T00:08:54.914Z,18.90
2022-12-15T00:09:54.936Z,19.50
2022-12-15T00:10:54.940Z,18.70
2022-12-15T00:11:54.901Z,18.50
2022-12-15T00:12:54.851Z,18.70
2022-12-15T00:13:54.872Z,18.40
2022-12-15T00:14:54.842Z,17.60
2022-12-15T00:15:54.926Z,18.90
2022-12-15T00:16:54.803Z,19.20
2022-12-15T00:17:54.811Z,18.80
2022-12-15T00:18:54.815Z,18.80
2022-12-15T00:19:54.800Z,19.30
2022-12-15T00:20:54.823Z,18.00
2022-12-15T00:21:54.827Z,18.30
2022-12-15T00:22:54.803Z,19.50
2022-12-15T00:23:54.782Z,19.20
2022-12-15T00:24:54.788Z,18.60
2022-12-15T00:25:54.797Z,19.30
2022-12-15T00:26:54.814Z,18.70
2022-12-15T00:27:54.856Z,18.40
2022-12-15T00:28:54.813Z,17.80
2022-12-15T00:29:54.793Z,19.60
2022-12-15T00:31:00.450Z,19.10
2022-12-15T00:31:56.827Z,17.30
2022-12-15T00:32:54.735Z,17.70
2022-12-15T00:33:54.739Z,18.40
2022-12-15T00:34:54.731Z,17.80
2022-12-15T00:35:54.718Z,18.50
2022-12-15T00:36:54.717Z,18.30
2022-12-15T00:37:54.717Z,18.70
2022-12-15T00:38:58.066Z,18.20
2022-12-15T00:39:55.665Z,18.20
2022-12-15T00:40:54.660Z,18.10
2022-12-15T00:41:54.667Z,18.50
2022-12-15T00:42:54.676Z,17.60
2022-12-15T00:43:54.683Z,18.20
2022-12-15T00:44:54.713Z,17.60
2022-12-15T00:45:54.701Z,17.60
2022-12-15T00:46:54.861Z,17.60
2022-12-15T00:47:54.661Z,18.00
2022-12-15T00:48:54.710Z,18.20
2022-12-15T00:49:54.877Z,17.70
2022-12-15T00:50:54.681Z,16.80
2022-12-15T00:51:54.701Z,16.90
2022-12-15T00:52:54.681Z,17.00
2022-12-15T00:53:54.645Z,16.90
2022-12-15T00:54:54.676Z,16.50
2022-12-15T00:55:54.567Z,16.20
2022-12-15T00:56:54.661Z,17.40
2022-12-15T00:57:54.580Z,17.70
2022-12-15T00:58:54.853Z,16.70
2022-12-15T00:59:54.572Z,17.60
2022-12-15T01:00:55.532Z,17.60
2022-12-15T01:01:54.625Z,18.40
2022-12-15T01:02:54.756Z,19.50
2022-12-15T01:03:54.761Z,20.10
2022-12-15T01:04:54.564Z,19.90
2022-12-15T01:05:54.494Z,18.40
2022-12-15T01:06:54.583Z,20.50
2022-12-15T01:07:54.518Z,19.50
2022-12-15T01:08:54.492Z,18.80
2022-12-15T01:09:54.490Z,18.60
2022-12-15T01:10:54.516Z,18.90
2022-12-15T01:11:54.489Z,18.40
2022-12-15T01:12:54.466Z,18.50
2022-12-15T01:13:54.505Z,17.40
2022-12-15T01:14:54.451Z,17.80
2022-12-15T01:15:54.510Z,18.00
2022-12-15T01:16:54.439Z,19.00
2022-12-15T01:17:54.481Z,19.40
2022-12-15T01:18:54.426Z,19.50
2022-12-15T01:19:54.434Z,20.40
2022-12-15T01:20:54.450Z,19.60
2022-12-15T01:21:54.434Z,18.90
2022-12-15T01:22:54.424Z,18.60
2022-12-15T01:23:54.416Z,18.00
2022-12-15T01:24:54.397Z,18.90
2022-12-15T01:25:54.420Z,17.60
2022-12-15T01:26:54.370Z,18.20
2022-12-15T01:27:54.378Z,18.20
2022-12-15T01:28:54.416Z,17.60
2022-12-15T01:29:54.380Z,17.40
2022-12-15T01:30:54.360Z,17.20
2022-12-15T01:31:54.411Z,16.50
2022-12-15T01:32:54.365Z,16.30
2022-12-15T01:33:54.347Z,17.20
2022-12-15T01:34:54.318Z,15.90
2022-12-15T01:35:54.317Z,15.90
2022-12-15T01:36:54.326Z,15.80
2022-12-15T01:37:54.337Z,16.20
2022-12-15T01:38:54.737Z,16.70
2022-12-15T01:39:55.292Z,16.10
2022-12-15T01:40:54.286Z,15.40
2022-12-15T01:41:54.301Z,15.10
2022-12-15T01:42:54.269Z,15.30
2022-12-15T01:43:54.315Z,15.20
2022-12-15T01:44:54.299Z,15.40
2022-12-15T01:45:54.266Z,15.10
2022-12-15T01:46:54.306Z,16.50
2022-12-15T01:47:54.301Z,16.20
2022-12-15T01:48:54.219Z,15.20
2022-12-15T01:49:54.270Z,15.60
2022-12-15T01:50:54.198Z,15.20
2022-12-15T01:51:54.229Z,16.00
2022-12-15T01:52:54.231Z,15.60
2022-12-15T01:53:54.221Z,16.00
2022-12-15T01:54:54.256Z,17.30
2022-12-15T01:55:54.211Z,16.70
2022-12-15T01:56:54.252Z,15.90
2022-12-15T01:57:54.163Z,16.20
2022-12-15T01:58:54.215Z,16.10
2022-12-15T01:59:54.155Z,15.90
2022-12-15T02:00:54.202Z,15.90
2022-12-15T02:01:54.264Z,15.60
2022-12-15T02:02:54.296Z,16.70
2022-12-15T02:03:54.141Z,16.10
2022-12-15T02:04:54.117Z,17.00
2022-12-15T02:05:54.128Z,16.00
2022-12-15T02:06:54.165Z,16.60
2022-12-15T02:07:54.146Z,16.00
2022-12-15T02:08:54.103Z,16.90
2022-12-15T02:09:54.078Z,18.20
2022-12-15T02:10:54.098Z,17.10
2022-12-15T02:11:54.119Z,17.70
2022-12-15T02:12:54.160Z,19.30
2022-12-15T02:13:55.154Z,21.20
2022-12-15T02:14:54.443Z,21.10
2022-12-15T02:15:54.106Z,20.40
2022-12-15T02:16:54.049Z,20.60
2022-12-15T02:17:54.312Z,20.80
2022-12-15T02:18:54.026Z,19.60
2022-12-15T02:19:54.916Z,20.10
2022-12-15T02:20:55.019Z,20.80
2022-12-15T02:21:54.100Z,19.90
2022-12-15T02:22:54.010Z,20.10
2022-12-15T02:23:54.073Z,20.10
2022-12-15T02:24:54.095Z,20.40
2022-12-15T02:25:54.263Z,20.50
2022-12-15T02:26:53.983Z,20.40
2022-12-15T02:27:54.619Z,19.30
2022-12-15T02:28:53.954Z,19.40
2022-12-15T02:29:54.242Z,20.30
2022-12-15T02:30:53.925Z,19.70
2022-12-15T02:31:54.211Z,20.10
2022-12-15T02:32:54.003Z,19.30
2022-12-15T02:33:54.106Z,19.30
2022-12-15T02:34:53.940Z,19.80
2022-12-15T02:35:54.003Z,18.80
2022-12-15T02:36:54.179Z,19.10
2022-12-15T02:37:53.903Z,19.60
2022-12-15T02:38:54.202Z,19.90
2022-12-15T02:39:54.279Z,20.50
2022-12-15T02:40:53.931Z,21.90
2022-12-15T02:41:54.375Z,21.70
2022-12-15T02:42:53.868Z,20.40
2022-12-15T02:43:54.024Z,18.60
2022-12-15T02:44:54.096Z,17.50
2022-12-15T02:45:54.124Z,17.20
2022-12-15T02:46:53.839Z,17.10
2022-12-15T02:47:54.232Z,17.70
2022-12-15T02:48:53.829Z,18.30
2022-12-15T02:49:54.327Z,18.90
2022-12-15T02:50:53.798Z,17.80
2022-12-15T02:51:54.021Z,18.60
2022-12-15T02:52:53.829Z,17.50
2022-12-15T02:53:54.074Z,16.30
2022-12-15T02:54:53.835Z,17.20
2022-12-15T02:55:53.779Z,16.70
2022-12-15T02:56:53.771Z,17.80
2022-12-15T02:57:53.864Z,19.20
2022-12-15T02:58:53.774Z,19.50
2022-12-15T02:59:53.774Z,20.00
2022-12-15T03:00:53.823Z,20.90
2022-12-15T03:01:53.926Z,20.20
2022-12-15T03:02:53.914Z,20.50
2022-12-15T03:03:53.731Z,20.50
2022-12-15T03:04:53.742Z,19.60
2022-12-15T03:05:53.738Z,18.30
2022-12-15T03:06:59.020Z,17.30
2022-12-15T03:07:55.694Z,17.60
2022-12-15T03:08:53.685Z,16.60
2022-12-15T03:09:53.667Z,16.40
2022-12-15T03:10:53.712Z,17.60
2022-12-15T03:11:53.709Z,16.20
2022-12-15T03:12:53.874Z,16.90
2022-12-15T03:13:53.644Z,17.00
2022-12-15T03:14:53.649Z,16.60
2022-12-15T03:15:53.663Z,16.90
2022-12-15T03:16:53.729Z,16.40
2022-12-15T03:17:53.660Z,15.80
2022-12-15T03:18:53.625Z,16.00
2022-12-15T03:19:53.618Z,16.40
2022-12-15T03:20:53.664Z,16.50
2022-12-15T03:21:53.589Z,15.90
2022-12-15T03:22:53.640Z,15.60
2022-12-15T03:23:53.602Z,16.20
2022-12-15T03:24:53.627Z,15.60
2022-12-15T03:25:53.596Z,15.60
2022-12-15T03:26:53.573Z,15.80
2022-12-15T03:27:53.587Z,15.00
2022-12-15T03:28:53.580Z,14.50
2022-12-15T03:29:53.583Z,16.10
2022-12-15T03:30:53.560Z,15.80
2022-12-15T03:31:53.585Z,15.90
2022-12-15T03:32:53.505Z,16.30
2022-12-15T03:33:53.553Z,15.30
2022-12-15T03:34:53.507Z,17.00
2022-12-15T03:35:53.570Z,15.40
2022-12-15T03:36:53.493Z,16.40
2022-12-15T03:37:53.486Z,15.80
2022-12-15T03:38:53.482Z,15.90
2022-12-15T03:39:53.545Z,16.50
2022-12-15T03:40:53.486Z,16.60
2022-12-15T03:41:53.483Z,16.30
2022-12-15T03:42:53.460Z,16.30
2022-12-15T03:43:53.469Z,16.60
2022-12-15T03:44:53.502Z,15.80
2022-12-15T03:45:53.544Z,15.40
2022-12-15T03:46:54.590Z,16.50
2022-12-15T03:47:53.468Z,16.90
2022-12-15T03:48:53.425Z,17.20
2022-12-15T03:49:53.427Z,17.10
2022-12-15T03:50:53.434Z,16.50
2022-12-15T03:51:53.455Z,17.30
2022-12-15T03:52:53.452Z,18.20
2022-12-15T03:53:53.413Z,19.90
2022-12-15T03:54:53.394Z,19.80
2022-12-15T03:55:53.392Z,20.00
2022-12-15T03:56:53.382Z,20.90
2022-12-15T03:57:53.373Z,20.50
2022-12-15T03:58:53.414Z,20.40
2022-12-15T03:59:53.360Z,19.10
2022-12-15T04:00:53.414Z,19.50
2022-12-15T04:01:53.532Z,19.70
2022-12-15T04:02:53.520Z,19.80
2022-12-15T04:04:00.041Z,20.40
2022-12-15T04:04:55.353Z,19.60
2022-12-15T04:05:53.328Z,19.60
2022-12-15T04:06:53.313Z,19.90
2022-12-15T04:07:53.372Z,19.40
2022-12-15T04:08:53.298Z,20.20
2022-12-15T04:09:53.341Z,20.40
2022-12-15T04:10:53.300Z,20.80
2022-12-15T04:11:53.303Z,20.70
2022-12-15T04:12:53.307Z,21.40
2022-12-15T04:13:53.263Z,20.60
2022-12-15T04:14:53.255Z,21.60
2022-12-15T04:15:53.281Z,21.40
2022-12-15T04:16:53.340Z,21.00
2022-12-15T04:17:53.250Z,20.70
2022-12-15T04:18:53.251Z,21.80
2022-12-15T04:19:53.245Z,22.80
2022-12-15T04:20:53.283Z,22.90
2022-12-15T04:21:53.253Z,22.10
2022-12-15T04:22:53.237Z,21.90
2022-12-15T04:23:53.203Z,22.10
2022-12-15T04:24:53.209Z,21.60
2022-12-15T04:25:53.212Z,22.10
2022-12-15T04:26:53.193Z,21.20
2022-12-15T04:27:55.924Z,21.20
2022-12-15T04:28:55.175Z,21.90
2022-12-15T04:29:53.187Z,22.40
2022-12-15T04:30:53.191Z,23.00
2022-12-15T04:31:53.181Z,21.40
2022-12-15T04:32:53.150Z,22.20
2022-12-15T04:33:53.153Z,23.20
2022-12-15T04:34:53.121Z,20.80
2022-12-15T04:35:53.123Z,21.40
2022-12-15T04:36:53.149Z,22.00
2022-12-15T04:37:53.147Z,20.50
2022-12-15T04:38:53.112Z,20.40
2022-12-15T04:39:53.126Z,21.10
2022-12-15T04:40:53.106Z,22.00
2022-12-15T04:41:53.118Z,23.70
2022-12-15T04:42:53.086Z,22.90
2022-12-15T04:43:53.088Z,22.90
2022-12-15T04:44:53.055Z,23.10
2022-12-15T04:45:53.101Z,23.30
2022-12-15T04:46:53.060Z,22.90
2022-12-15T04:47:53.060Z,22.10
2022-12-15T04:48:53.049Z,24.00
2022-12-15T04:49:53.031Z,21.80
2022-12-15T04:50:53.033Z,24.00
2022-12-15T04:51:53.032Z,23.70
2022-12-15T04:52:53.006Z,22.60
2022-12-15T04:53:53.007Z,23.90
2022-12-15T04:54:52.993Z,23.50
2022-12-15T04:55:52.971Z,24.00
2022-12-15T04:56:52.971Z,24.00
2022-12-15T04:57:52.966Z,24.00
2022-12-15T04:58:52.994Z,24.80
2022-12-15T04:59:52.980Z,24.20
2022-12-15T05:00:52.973Z,24.80
2022-12-15T05:01:53.046Z,24.20
2022-12-15T05:02:52.972Z,24.80
2022-12-15T05:03:53.015Z,25.00
2022-12-15T05:04:52.974Z,26.10
2022-12-15T05:05:52.921Z,24.10
2022-12-15T05:06:52.960Z,25.10
2022-12-15T05:07:52.925Z,24.50
2022-12-15T05:08:52.900Z,25.60
2022-12-15T05:09:52.961Z,26.80
2022-12-15T05:10:52.896Z,25.50
2022-12-15T05:11:52.923Z,25.60
2022-12-15T05:12:52.867Z,24.60
2022-12-15T05:13:52.861Z,24.30
2022-12-15T05:14:52.889Z,24.70
2022-12-15T05:15:52.933Z,26.90
2022-12-15T05:16:52.933Z,25.60
2022-12-15T05:17:52.864Z,26.20
2022-12-15T05:18:52.831Z,26.10
2022-12-15T05:19:52.838Z,24.70
2022-12-15T05:20:52.870Z,26.40
2022-12-15T05:21:52.833Z,26.10
2022-12-15T05:22:52.814Z,26.70
2022-12-15T05:23:52.824Z,24.90
2022-12-15T05:24:52.812Z,24.60
2022-12-15T05:25:52.842Z,24.90
2022-12-15T05:26:53.480Z,25.10
2022-12-15T05:27:53.792Z,24.40
2022-12-15T05:28:52.786Z,24.70
2022-12-15T05:29:52.849Z,24.80
2022-12-15T05:30:52.814Z,24.60
2022-12-15T05:31:52.794Z,25.30
2022-12-15T05:32:52.771Z,24.70
2022-12-15T05:33:52.760Z,25.40
2022-12-15T05:34:52.770Z,26.00
2022-12-15T05:35:52.764Z,25.70
2022-12-15T05:36:52.734Z,27.00
2022-12-15T05:37:52.760Z,26.80
2022-12-15T05:38:52.895Z,25.50
2022-12-15T05:39:52.741Z,25.90
2022-12-15T05:40:52.741Z,26.10
2022-12-15T05:41:52.707Z,24.40
2022-12-15T05:42:53.719Z,25.90
2022-12-15T05:43:52.729Z,24.80
2022-12-15T05:44:53.711Z,25.60
2022-12-15T05:45:52.742Z,26.40
2022-12-15T05:46:52.702Z,25.70
2022-12-15T05:47:52.660Z,27.30
2022-12-15T05:48:52.663Z,26.00
2022-12-15T05:49:52.654Z,26.70
2022-12-15T05:50:52.686Z,27.10
2022-12-15T05:51:52.691Z,25.60
2022-12-15T05:52:52.643Z,26.10
2022-12-15T05:53:52.626Z,25.10
2022-12-15T05:54:52.663Z,25.10
2022-12-15T05:55:52.630Z,24.80
2022-12-15T05:56:52.598Z,26.30
2022-12-15T05:57:52.625Z,24.70
2022-12-15T05:58:52.602Z,25.00
2022-12-15T05:59:52.629Z,26.40
2022-12-15T06:00:52.624Z,26.60
2022-12-15T06:01:52.642Z,25.60
2022-12-15T06:02:52.648Z,25.30
2022-12-15T06:03:52.562Z,24.90
2022-12-15T06:04:52.657Z,25.80
2022-12-15T06:05:56.408Z,24.70
2022-12-15T06:06:53.560Z,25.40
2022-12-15T06:07:52.586Z,25.80
2022-12-15T06:08:52.567Z,25.10
2022-12-15T06:09:52.554Z,24.30
2022-12-15T06:10:52.594Z,24.30
2022-12-15T06:11:52.541Z,24.20
2022-12-15T06:12:52.532Z,25.80
2022-12-15T06:13:52.508Z,25.40
2022-12-15T06:14:52.512Z,26.80
2022-12-15T06:15:52.545Z,27.30
2022-12-15T06:16:52.555Z,26.10
2022-12-15T06:17:52.515Z,26.10
2022-12-15T06:18:52.502Z,25.60
2022-12-15T06:19:52.477Z,25.70
2022-12-15T06:20:52.466Z,26.50
2022-12-15T06:21:53.524Z,26.70
2022-12-15T06:22:52.434Z,26.30
2022-12-15T06:23:52.488Z,26.70
2022-12-15T06:24:52.449Z,26.10
2022-12-15T06:25:52.453Z,27.10
2022-12-15T06:26:52.432Z,26.80
2022-12-15T06:27:55.789Z,26.40
2022-12-15T06:28:53.431Z,27.40
2022-12-15T06:29:52.426Z,27.70
2022-12-15T06:30:52.457Z,27.70
2022-12-15T06:31:52.471Z,27.60
2022-12-15T06:32:52.448Z,28.10
2022-12-15T06:33:57.529Z,29.10
2022-12-15T06:34:54.377Z,29.20
2022-12-15T06:35:52.382Z,28.30
2022-12-15T06:36:52.449Z,28.20
2022-12-15T06:37:52.413Z,27.90
2022-12-15T06:38:52.353Z,27.00
2022-12-15T06:39:52.416Z,28.30
2022-12-15T06:40:52.343Z,28.50
2022-12-15T06:41:52.325Z,28.70
2022-12-15T06:42:52.339Z,27.80
2022-12-15T06:43:52.322Z,29.60
2022-12-15T06:44:52.512Z,29.20
2022-12-15T06:45:52.321Z,28.80
2022-12-15T06:46:52.371Z,28.20
2022-12-15T06:47:56.520Z,28.80
2022-12-15T06:48:53.346Z,29.20
2022-12-15T06:49:52.344Z,29.80
2022-12-15T06:50:52.299Z,29.60
2022-12-15T06:51:52.284Z,30.40
2022-12-15T06:52:52.249Z,31.20
2022-12-15T06:53:52.268Z,30.20
2022-12-15T06:54:52.299Z,30.40
2022-12-15T06:55:52.269Z,29.20
2022-12-15T06:56:52.436Z,30.20
2022-12-15T06:57:52.232Z,30.90
2022-12-15T06:58:52.235Z,31.70
2022-12-15T06:59:52.285Z,30.30
2022-12-15T07:00:52.345Z,31.30
2022-12-15T07:01:52.375Z,32.50
2022-12-15T07:02:52.347Z,31.50
2022-12-15T07:03:52.503Z,30.90
2022-12-15T07:04:52.200Z,29.10
2022-12-15T07:05:52.227Z,29.50
2022-12-15T07:06:52.211Z,29.10
2022-12-15T07:07:52.182Z,28.00
2022-12-15T07:08:52.162Z,28.20
2022-12-15T07:09:52.173Z,28.80
2022-12-15T07:10:52.174Z,26.80
2022-12-15T07:11:52.183Z,27.80
2022-12-15T07:12:52.150Z,27.40
2022-12-15T07:13:52.188Z,27.70
2022-12-15T07:14:53.697Z,27.80
2022-12-15T07:15:53.158Z,27.90
2022-12-15T07:16:52.140Z,28.10
2022-12-15T07:17:52.128Z,27.50
2022-12-15T07:18:52.117Z,29.20
2022-12-15T07:19:52.117Z,28.70
2022-12-15T07:20:52.092Z,28.80
2022-12-15T07:21:52.185Z,29.50
2022-12-15T07:22:52.180Z,28.50
2022-12-15T07:23:55.421Z,29.70
2022-12-15T07:24:53.077Z,28.30
2022-12-15T07:25:52.055Z,28.40
2022-12-15T07:26:52.188Z,27.60
2022-12-15T07:27:52.087Z,26.20
2022-12-15T07:28:52.050Z,27.00
2022-12-15T07:29:52.043Z,26.20
2022-12-15T07:30:52.123Z,27.00
2022-12-15T07:31:52.128Z,28.10
2022-12-15T07:32:53.137Z,26.60
2022-12-15T07:33:52.124Z,27.60
2022-12-15T07:34:52.012Z,27.90
2022-12-15T07:35:52.037Z,27.90
2022-12-15T07:36:52.847Z,29.70
2022-12-15T07:37:53.007Z,29.50
2022-12-15T07:38:52.172Z,32.30
2022-12-15T07:39:52.013Z,40.20
2022-12-15T07:40:52.127Z,47.70
2022-12-15T07:41:51.990Z,61.60
2022-12-15T07:42:51.977Z,57.10
2022-12-15T07:43:51.954Z,48.40
2022-12-15T07:44:51.985Z,50.20
2022-12-15T07:45:52.076Z,48.20
2022-12-15T07:46:51.969Z,45.40
2022-12-15T07:47:51.950Z,46.50
2022-12-15T07:48:51.923Z,46.00
2022-12-15T07:49:51.923Z,46.40
2022-12-15T07:50:51.933Z,44.20
2022-12-15T07:51:51.923Z,40.10
2022-12-15T07:52:51.904Z,34.80
2022-12-15T07:53:51.890Z,31.80
2022-12-15T07:54:51.869Z,30.20
2022-12-15T07:56:07.066Z,31.70
2022-12-15T07:56:53.894Z,30.80
2022-12-15T07:57:51.878Z,31.70
2022-12-15T07:58:51.880Z,33.40
2022-12-15T07:59:51.849Z,35.00
2022-12-15T08:00:51.876Z,33.40
2022-12-15T08:01:52.079Z,29.50
2022-12-15T08:02:52.002Z,29.60
2022-12-15T08:03:51.940Z,30.80
2022-12-15T08:04:52.806Z,30.40
2022-12-15T08:05:51.901Z,31.10
2022-12-15T08:06:51.840Z,31.60
2022-12-15T08:07:51.826Z,31.90
2022-12-15T08:08:51.784Z,30.90
2022-12-15T08:09:51.772Z,30.70
2022-12-15T08:10:51.819Z,32.70
2022-12-15T08:11:51.806Z,34.50
2022-12-15T08:12:51.799Z,33.70
2022-12-15T08:14:11.973Z,33.30
2022-12-15T08:14:53.762Z,36.10
2022-12-15T08:15:51.742Z,37.00
2022-12-15T08:16:51.800Z,36.70
2022-12-15T08:17:51.780Z,36.90
2022-12-15T08:18:51.726Z,36.40
2022-12-15T08:19:55.688Z,37.50
2022-12-15T08:20:52.715Z,35.40
2022-12-15T08:21:51.719Z,36.80
2022-12-15T08:22:51.688Z,37.30
2022-12-15T08:23:51.684Z,35.80
2022-12-15T08:24:51.682Z,35.40
2022-12-15T08:25:51.677Z,36.00
2022-12-15T08:26:51.687Z,35.90
2022-12-15T08:27:51.694Z,35.50
2022-12-15T08:28:51.692Z,36.30
2022-12-15T08:29:52.564Z,37.10
2022-12-15T08:30:52.647Z,36.60
2022-12-15T08:31:51.779Z,36.50
2022-12-15T08:32:52.231Z,38.50
2022-12-15T08:33:52.614Z,37.80
2022-12-15T08:34:51.666Z,37.10
2022-12-15T08:35:57.220Z,39.10
2022-12-15T08:36:53.653Z,37.90
2022-12-15T08:37:51.649Z,40.70
2022-12-15T08:38:51.593Z,39.20
2022-12-15T08:39:51.628Z,39.70
2022-12-15T08:40:51.579Z,40.40
2022-12-15T08:41:52.612Z,40.30
2022-12-15T08:42:51.623Z,39.20
2022-12-15T08:43:51.567Z,39.20
2022-12-15T08:44:51.587Z,38.70
2022-12-15T08:45:51.712Z,38.40
2022-12-15T08:46:51.574Z,37.50
2022-12-15T08:47:51.571Z,36.10
2022-12-15T08:48:51.550Z,38.20
2022-12-15T08:49:51.583Z,32.70
2022-12-15T08:50:51.522Z,33.30
2022-12-15T08:51:51.562Z,34.90
2022-12-15T08:53:21.344Z,35.60
2022-12-15T08:53:53.518Z,36.00
2022-12-15T08:54:51.548Z,34.30
2022-12-15T08:55:51.508Z,38.80
2022-12-15T08:56:51.485Z,39.10
2022-12-15T08:57:51.494Z,38.30
2022-12-15T08:58:51.474Z,39.40
2022-12-15T08:59:51.574Z,39.60
2022-12-15T09:00:51.508Z,39.40
2022-12-15T09:01:51.718Z,39.30
2022-12-15T09:02:51.518Z,41.80
2022-12-15T09:03:51.570Z,39.50
2022-12-15T09:04:51.526Z,41.70
2022-12-15T09:05:51.416Z,41.90
2022-12-15T09:06:51.447Z,41.10
2022-12-15T09:07:51.430Z,39.60
2022-12-15T09:08:51.513Z,42.00
2022-12-15T09:09:51.462Z,41.70
2022-12-15T09:10:52.487Z,42.50
2022-12-15T09:11:51.389Z,38.50
2022-12-15T09:12:51.469Z,36.60
2022-12-15T09:13:51.415Z,35.80
2022-12-15T09:14:51.372Z,38.10
2022-12-15T09:16:53.446Z,37.70
2022-12-15T09:17:51.373Z,37.30
2022-12-15T09:18:51.362Z,36.30
2022-12-15T09:19:51.365Z,36.00
2022-12-15T09:20:51.395Z,34.30
2022-12-15T09:21:51.376Z,34.70
2022-12-15T09:22:51.359Z,35.60
2022-12-15T09:23:51.327Z,35.00
2022-12-15T09:24:51.341Z,35.10
2022-12-15T09:25:51.310Z,35.10
2022-12-15T09:26:51.446Z,35.60
2022-12-15T09:27:51.319Z,37.40
2022-12-15T09:28:51.395Z,35.80
2022-12-15T09:29:51.295Z,36.00
2022-12-15T09:30:51.298Z,34.00
2022-12-15T09:31:51.279Z,34.40
2022-12-15T09:32:51.317Z,35.10
2022-12-15T09:33:51.290Z,34.30
2022-12-15T09:34:51.593Z,34.60
2022-12-15T09:35:51.260Z,34.90
2022-12-15T09:36:51.280Z,33.30
2022-12-15T09:37:51.954Z,34.50
2022-12-15T09:38:52.227Z,33.40
2022-12-15T09:39:51.244Z,33.90
2022-12-15T09:40:51.258Z,33.70
2022-12-15T09:41:51.242Z,36.30
2022-12-15T09:43:05.045Z,37.60
2022-12-15T09:43:53.643Z,38.50
2022-12-15T09:44:51.244Z,36.30
2022-12-15T09:45:51.261Z,36.40
2022-12-15T09:46:51.233Z,36.20
2022-12-15T09:47:51.209Z,35.70
2022-12-15T09:48:51.258Z,35.70
2022-12-15T09:49:51.190Z,34.30
2022-12-15T09:50:51.221Z,33.50
2022-12-15T09:51:51.177Z,34.90
2022-12-15T09:52:51.213Z,35.30
2022-12-15T09:53:55.935Z,34.30
2022-12-15T09:54:53.266Z,34.20
2022-12-15T09:55:51.189Z,34.90
2022-12-15T09:56:51.170Z,36.00
2022-12-15T09:57:51.211Z,34.90
2022-12-15T09:58:51.152Z,34.90
2022-12-15T09:59:51.305Z,36.90
2022-12-15T10:00:52.645Z,36.00
2022-12-15T10:01:52.156Z,35.30
2022-12-15T10:02:51.174Z,36.70
2022-12-15T10:03:51.169Z,36.20
2022-12-15T10:04:51.084Z,36.30
2022-12-15T10:06:14.729Z,36.80
2022-12-15T10:06:53.085Z,37.00
2022-12-15T10:07:51.108Z,36.00
2022-12-15T10:08:51.061Z,36.30
2022-12-15T10:09:51.109Z,36.50
2022-12-15T10:10:51.091Z,36.40
2022-12-15T10:11:51.202Z,36.90
2022-12-15T10:13:53.036Z,37.40
2022-12-15T10:14:51.037Z,36.80
2022-12-15T10:15:51.062Z,37.10
2022-12-15T10:16:51.049Z,35.20
2022-12-15T10:17:51.020Z,36.20
2022-12-15T10:18:53.622Z,36.60
2022-12-15T10:19:52.113Z,36.30
2022-12-15T10:20:50.998Z,37.20
2022-12-15T10:21:51.029Z,36.10
2022-12-15T10:22:51.017Z,38.70
2022-12-15T10:23:51.042Z,37.80
2022-12-15T10:25:52.956Z,39.30
2022-12-15T10:26:50.982Z,39.40
2022-12-15T10:27:50.948Z,40.20
2022-12-15T10:28:51.320Z,39.60
2022-12-15T10:29:51.237Z,38.60
2022-12-15T10:30:50.999Z,39.20
2022-12-15T10:31:50.943Z,41.10
2022-12-15T10:32:51.292Z,41.80
2022-12-15T10:33:51.922Z,41.90
2022-12-15T10:34:50.948Z,40.10
2022-12-15T10:35:50.923Z,43.60
2022-12-15T10:36:50.896Z,41.80
2022-12-15T10:37:50.963Z,43.60
2022-12-15T10:38:50.951Z,43.00
2022-12-15T10:39:50.884Z,40.80
2022-12-15T10:40:51.165Z,41.40
2022-12-15T10:41:50.963Z,39.10
2022-12-15T10:42:50.918Z,39.10
2022-12-15T10:43:50.891Z,41.40
2022-12-15T10:44:51.847Z,42.00
2022-12-15T10:45:50.934Z,41.70
2022-12-15T10:46:50.927Z,41.70
2022-12-15T10:47:50.839Z,41.80
2022-12-15T10:48:51.589Z,40.50
2022-12-15T10:49:50.865Z,41.10
2022-12-15T10:50:50.833Z,41.00
2022-12-15T10:51:50.812Z,40.30
2022-12-15T10:52:50.816Z,42.30
2022-12-15T10:53:50.996Z,41.20
2022-12-15T10:54:50.827Z,41.70
2022-12-15T10:55:50.786Z,41.60
2022-12-15T10:56:50.778Z,41.20
2022-12-15T10:57:50.795Z,41.30
2022-12-15T10:58:50.774Z,43.00
2022-12-15T10:59:50.795Z,42.40
2022-12-15T11:00:51.159Z,41.20
2022-12-15T11:01:51.097Z,40.80
2022-12-15T11:02:50.852Z,41.70
2022-12-15T11:03:50.934Z,42.20
2022-12-15T11:04:50.765Z,41.20
2022-12-15T11:05:50.724Z,41.00
2022-12-15T11:06:50.722Z,40.20
2022-12-15T11:07:50.810Z,40.30
2022-12-15T11:08:50.831Z,40.50
2022-12-15T11:09:50.990Z,39.80
2022-12-15T11:10:50.701Z,40.00
2022-12-15T11:11:50.732Z,40.30
2022-12-15T11:12:50.830Z,41.50
2022-12-15T11:13:50.791Z,41.70
2022-12-15T11:14:51.224Z,40.00
2022-12-15T11:15:51.121Z,41.00
2022-12-15T11:16:50.673Z,39.80
2022-12-15T11:17:50.686Z,39.70
2022-12-15T11:18:50.659Z,41.10
2022-12-15T11:19:52.222Z,40.80
2022-12-15T11:20:50.668Z,40.40
2022-12-15T11:21:50.670Z,40.00
2022-12-15T11:22:50.625Z,40.30
2022-12-15T11:23:50.644Z,40.20
2022-12-15T11:24:50.629Z,41.00
2022-12-15T11:25:50.620Z,39.80
2022-12-15T11:26:50.647Z,39.10
2022-12-15T11:27:50.628Z,39.30
2022-12-15T11:28:50.591Z,38.60
2022-12-15T11:29:50.579Z,37.80
2022-12-15T11:30:50.600Z,38.90
2022-12-15T11:31:50.592Z,38.70
2022-12-15T11:32:50.606Z,39.30
2022-12-15T11:33:50.587Z,39.30
2022-12-15T11:34:50.570Z,37.80
2022-12-15T11:35:50.609Z,38.40
2022-12-15T11:36:50.593Z,37.90
2022-12-15T11:37:50.610Z,38.40
2022-12-15T11:38:50.895Z,39.20
2022-12-15T11:39:50.537Z,39.30
2022-12-15T11:40:50.671Z,40.00
2022-12-15T11:41:50.563Z,42.10
2022-12-15T11:42:50.534Z,42.20
2022-12-15T11:43:50.618Z,41.90
2022-12-15T11:44:50.514Z,40.50
2022-12-15T11:45:50.514Z,40.50
2022-12-15T11:46:50.533Z,41.00
2022-12-15T11:47:50.969Z,37.70
2022-12-15T11:48:50.720Z,38.30
2022-12-15T11:49:50.530Z,37.50
2022-12-15T11:50:51.073Z,37.10
2022-12-15T11:51:50.470Z,37.80
2022-12-15T11:52:50.487Z,37.70
2022-12-15T11:53:50.510Z,39.00
2022-12-15T11:54:50.456Z,37.80
2022-12-15T11:55:50.441Z,37.90
2022-12-15T11:56:50.426Z,38.00
2022-12-15T11:57:50.593Z,39.00
2022-12-15T11:58:50.479Z,39.70
2022-12-15T11:59:50.441Z,43.50
2022-12-15T12:00:50.459Z,54.10
2022-12-15T12:01:57.114Z,37.30
2022-12-15T12:02:52.443Z,37.10
2022-12-15T12:03:50.399Z,38.50
2022-12-15T12:04:50.853Z,39.20
2022-12-15T12:05:50.424Z,38.90
2022-12-15T12:06:50.477Z,36.70
2022-12-15T12:07:50.388Z,38.80
2022-12-15T12:08:51.187Z,37.60
2022-12-15T12:09:50.361Z,38.40
2022-12-15T12:10:50.457Z,39.30
2022-12-15T12:11:50.449Z,40.50
2022-12-15T12:12:50.638Z,39.10
2022-12-15T12:13:50.448Z,39.20
2022-12-15T12:14:50.778Z,38.00
2022-12-15T12:15:50.366Z,38.70
2022-12-15T12:16:50.384Z,38.90
2022-12-15T12:17:50.326Z,40.40
2022-12-15T12:18:50.369Z,39.70
2022-12-15T12:19:50.797Z,38.20
2022-12-15T12:20:50.403Z,37.60
2022-12-15T12:21:50.974Z,37.90
2022-12-15T12:22:50.651Z,37.70
2022-12-15T12:23:50.338Z,36.50
2022-12-15T12:25:51.283Z,36.80
2022-12-15T12:26:50.382Z,36.90
2022-12-15T12:27:50.530Z,36.40
2022-12-15T12:28:50.452Z,36.30
2022-12-15T12:29:50.256Z,37.00
2022-12-15T12:30:50.610Z,36.60
2022-12-15T12:31:50.738Z,42.20
2022-12-15T12:32:50.515Z,39.70
2022-12-15T12:33:50.233Z,39.10
2022-12-15T12:34:51.105Z,40.60
2022-12-15T12:35:50.232Z,40.60
2022-12-15T12:36:50.220Z,35.70
2022-12-15T12:37:50.233Z,36.70
2022-12-15T12:38:50.958Z,36.30
2022-12-15T12:39:50.187Z,36.60
2022-12-15T12:40:50.320Z,37.70
2022-12-15T12:41:50.175Z,37.40
2022-12-15T12:42:50.400Z,35.40
2022-12-15T12:43:50.568Z,37.20
2022-12-15T12:44:50.158Z,38.00
2022-12-15T12:45:50.403Z,37.90
2022-12-15T12:46:50.596Z,37.40
2022-12-15T12:47:50.177Z,36.00
2022-12-15T12:48:50.182Z,35.90
2022-12-15T12:49:50.419Z,36.40
2022-12-15T12:50:50.586Z,35.60
2022-12-15T12:51:50.130Z,36.40
2022-12-15T12:52:50.319Z,35.70
2022-12-15T12:53:50.317Z,34.50
2022-12-15T12:54:50.300Z,35.30
2022-12-15T12:55:50.094Z,34.70
2022-12-15T12:56:50.649Z,34.00